sensor_id;sensor_type;location;lat;lon;timestamp;pressure;altitude;pressure_sealevel;temperature
31921;BMP280;66485;52.128;4.436;2023-07-31T00:00:29;101042.09;;;24.74
31921;BMP280;66485;52.128;4.436;2023-07-31T00:02:54;101042.09;;;24.74
31921;BMP280;66485;52.128;4.436;2023-07-31T00:05:20;101048.78;;;24.73
31921;BMP280;66485;52.128;4.436;2023-07-31T00:07:45;101056.28;;;24.73
31921;BMP280;66485;52.128;4.436;2023-07-31T00:10:11;101055.19;;;24.70
31921;BMP280;66485;52.128;4.436;2023-07-31T00:12:38;101051.25;;;24.71
31921;BMP280;66485;52.128;4.436;2023-07-31T00:15:04;101051.25;;;24.71
31921;BMP280;66485;52.128;4.436;2023-07-31T00:17:29;101055.19;;;24.70
31921;BMP280;66485;52.128;4.436;2023-07-31T00:19:55;101055.19;;;24.70
31921;BMP280;66485;52.128;4.436;2023-07-31T00:22:20;101027.50;;;24.68
31921;BMP280;66485;52.128;4.436;2023-07-31T00:24:45;101029.31;;;24.71
31921;BMP280;66485;52.128;4.436;2023-07-31T00:27:11;101041.22;;;24.68
31921;BMP280;66485;52.128;4.436;2023-07-31T00:29:36;101049.84;;;24.67
31921;BMP280;66485;52.128;4.436;2023-07-31T00:32:02;101032.50;;;24.70
31921;BMP280;66485;52.128;4.436;2023-07-31T00:34:27;101032.50;;;24.70
31921;BMP280;66485;52.128;4.436;2023-07-31T00:36:52;101021.41;;;24.64
31921;BMP280;66485;52.128;4.436;2023-07-31T00:39:18;101021.41;;;24.64
31921;BMP280;66485;52.128;4.436;2023-07-31T00:41:43;101021.69;;;24.66
31921;BMP280;66485;52.128;4.436;2023-07-31T00:44:09;101016.22;;;24.66
31921;BMP280;66485;52.128;4.436;2023-07-31T00:46:34;101020.19;;;24.65
31921;BMP280;66485;52.128;4.436;2023-07-31T00:49:00;101020.19;;;24.65
31921;BMP280;66485;52.128;4.436;2023-07-31T00:51:25;101020.94;;;24.66
31921;BMP280;66485;52.128;4.436;2023-07-31T00:53:51;101013.63;;;24.62
31921;BMP280;66485;52.128;4.436;2023-07-31T00:56:19;101008.91;;;24.63
31921;BMP280;66485;52.128;4.436;2023-07-31T00:58:44;101027.81;;;24.61
31921;BMP280;66485;52.128;4.436;2023-07-31T01:01:10;101034.81;;;24.62
31921;BMP280;66485;52.128;4.436;2023-07-31T01:03:35;101034.81;;;24.62
31921;BMP280;66485;52.128;4.436;2023-07-31T01:10:56;101020.03;;;24.59
31921;BMP280;66485;52.128;4.436;2023-07-31T01:13:22;101005.88;;;24.61
31921;BMP280;66485;52.128;4.436;2023-07-31T01:15:48;101005.88;;;24.61
31921;BMP280;66485;52.128;4.436;2023-07-31T01:18:13;101018.97;;;24.57
31921;BMP280;66485;52.128;4.436;2023-07-31T01:20:41;101001.63;;;24.60
31921;BMP280;66485;52.128;4.436;2023-07-31T01:23:33;101006.81;;;24.58
31921;BMP280;66485;52.128;4.436;2023-07-31T01:31:24;101015.44;;;24.56
31921;BMP280;66485;52.128;4.436;2023-07-31T01:33:53;101004.97;;;24.55
31921;BMP280;66485;52.128;4.436;2023-07-31T01:36:19;101004.97;;;24.55
31921;BMP280;66485;52.128;4.436;2023-07-31T01:38:44;101008.03;;;24.57
31921;BMP280;66485;52.128;4.436;2023-07-31T01:41:10;100988.22;;;24.53
31921;BMP280;66485;52.128;4.436;2023-07-31T01:43:35;100988.22;;;24.53
31921;BMP280;66485;52.128;4.436;2023-07-31T01:46:00;100983.06;;;24.55
31921;BMP280;66485;52.128;4.436;2023-07-31T01:48:26;100984.72;;;24.52
31921;BMP280;66485;52.128;4.436;2023-07-31T01:50:51;100984.72;;;24.52
31921;BMP280;66485;52.128;4.436;2023-07-31T01:53:16;100969.81;;;24.53
31921;BMP280;66485;52.128;4.436;2023-07-31T01:55:42;100969.81;;;24.53
31921;BMP280;66485;52.128;4.436;2023-07-31T01:58:07;100958.09;;;24.53
31921;BMP280;66485;52.128;4.436;2023-07-31T02:00:32;100958.09;;;24.53
31921;BMP280;66485;52.128;4.436;2023-07-31T02:02:59;100951.56;;;24.50
31921;BMP280;66485;52.128;4.436;2023-07-31T02:05:24;100948.34;;;24.52
31921;BMP280;66485;52.128;4.436;2023-07-31T02:07:50;100948.34;;;24.52
31921;BMP280;66485;52.128;4.436;2023-07-31T02:10:15;100941.84;;;24.49
31921;BMP280;66485;52.128;4.436;2023-07-31T02:12:40;100941.84;;;24.49
31921;BMP280;66485;52.128;4.436;2023-07-31T02:15:06;100947.16;;;24.53
31921;BMP280;66485;52.128;4.436;2023-07-31T02:17:31;100947.16;;;24.53
31921;BMP280;66485;52.128;4.436;2023-07-31T02:19:57;100937.28;;;24.46
31921;BMP280;66485;52.128;4.436;2023-07-31T02:22:22;100953.38;;;24.53
31921;BMP280;66485;52.128;4.436;2023-07-31T02:24:47;100953.38;;;24.53
31921;BMP280;66485;52.128;4.436;2023-07-31T02:27:13;100944.13;;;24.51
31921;BMP280;66485;52.128;4.436;2023-07-31T02:29:38;100942.44;;;24.53
31921;BMP280;66485;52.128;4.436;2023-07-31T02:32:04;100936.34;;;24.49
31921;BMP280;66485;52.128;4.436;2023-07-31T02:34:29;100942.59;;;24.50
31921;BMP280;66485;52.128;4.436;2023-07-31T02:36:55;100929.34;;;24.48
31921;BMP280;66485;52.128;4.436;2023-07-31T02:39:20;100924.63;;;24.49
31921;BMP280;66485;52.128;4.436;2023-07-31T02:41:46;100924.63;;;24.49
31921;BMP280;66485;52.128;4.436;2023-07-31T02:44:11;100914.94;;;24.48
31921;BMP280;66485;52.128;4.436;2023-07-31T02:46:39;100914.94;;;24.48
31921;BMP280;66485;52.128;4.436;2023-07-31T02:49:05;100909.09;;;24.46
31921;BMP280;66485;52.128;4.436;2023-07-31T02:51:30;100907.28;;;24.43
31921;BMP280;66485;52.128;4.436;2023-07-31T02:53:55;100909.59;;;24.44
31921;BMP280;66485;52.128;4.436;2023-07-31T02:56:21;100907.59;;;24.45
31921;BMP280;66485;52.128;4.436;2023-07-31T02:58:46;100907.59;;;24.45
31921;BMP280;66485;52.128;4.436;2023-07-31T03:01:12;100884.78;;;24.39
31921;BMP280;66485;52.128;4.436;2023-07-31T03:03:37;100898.63;;;24.44
31921;BMP280;66485;52.128;4.436;2023-07-31T03:06:02;100891.16;;;24.45
31921;BMP280;66485;52.128;4.436;2023-07-31T03:08:28;100896.97;;;24.47
31921;BMP280;66485;52.128;4.436;2023-07-31T03:10:53;100895.13;;;24.44
31921;BMP280;66485;52.128;4.436;2023-07-31T03:13:18;100882.66;;;24.43
31921;BMP280;66485;52.128;4.436;2023-07-31T03:15:44;100889.94;;;24.46
31921;BMP280;66485;52.128;4.436;2023-07-31T03:18:09;100889.94;;;24.46
31921;BMP280;66485;52.128;4.436;2023-07-31T03:20:35;100889.34;;;24.42
31921;BMP280;66485;52.128;4.436;2023-07-31T03:23:00;100889.34;;;24.42
31921;BMP280;66485;52.128;4.436;2023-07-31T03:25:26;100893.59;;;24.43
31921;BMP280;66485;52.128;4.436;2023-07-31T03:27:51;100882.38;;;24.41
31921;BMP280;66485;52.128;4.436;2023-07-31T03:30:16;100883.88;;;24.42
31921;BMP280;66485;52.128;4.436;2023-07-31T03:32:42;100879.16;;;24.42
31921;BMP280;66485;52.128;4.436;2023-07-31T03:35:07;100878.88;;;24.40
31921;BMP280;66485;52.128;4.436;2023-07-31T03:37:33;100866.69;;;24.41
31921;BMP280;66485;52.128;4.436;2023-07-31T03:39:58;100866.69;;;24.41
31921;BMP280;66485;52.128;4.436;2023-07-31T03:42:24;100855.16;;;24.37
31921;BMP280;66485;52.128;4.436;2023-07-31T03:44:49;100857.91;;;24.37
31921;BMP280;66485;52.128;4.436;2023-07-31T03:47:15;100857.13;;;24.37
31921;BMP280;66485;52.128;4.436;2023-07-31T03:49:40;100849.19;;;24.39
31921;BMP280;66485;52.128;4.436;2023-07-31T03:52:06;100851.66;;;24.37
31921;BMP280;66485;52.128;4.436;2023-07-31T03:54:31;100859.09;;;24.36
31921;BMP280;66485;52.128;4.436;2023-07-31T03:56:56;100843.09;;;24.35
31921;BMP280;66485;52.128;4.436;2023-07-31T03:59:22;100843.09;;;24.35
31921;BMP280;66485;52.128;4.436;2023-07-31T04:01:47;100849.19;;;24.39
31921;BMP280;66485;52.128;4.436;2023-07-31T04:04:12;100849.19;;;24.39
31921;BMP280;66485;52.128;4.436;2023-07-31T04:06:38;100837.31;;;24.42
31921;BMP280;66485;52.128;4.436;2023-07-31T04:09:03;100841.47;;;24.37
31921;BMP280;66485;52.128;4.436;2023-07-31T04:11:28;100834.03;;;24.38
31921;BMP280;66485;52.128;4.436;2023-07-31T04:13:54;100825.81;;;24.38
31921;BMP280;66485;52.128;4.436;2023-07-31T04:16:19;100820.78;;;24.36
31921;BMP280;66485;52.128;4.436;2023-07-31T04:18:44;100813.00;;;24.35
31921;BMP280;66485;52.128;4.436;2023-07-31T04:21:10;100818.03;;;24.36
31921;BMP280;66485;52.128;4.436;2023-07-31T04:23:35;100818.03;;;24.36
31921;BMP280;66485;52.128;4.436;2023-07-31T04:26:00;100807.50;;;24.35
31921;BMP280;66485;52.128;4.436;2023-07-31T04:28:26;100807.50;;;24.35
31921;BMP280;66485;52.128;4.436;2023-07-31T04:30:52;100809.22;;;24.32
31921;BMP280;66485;52.128;4.436;2023-07-31T04:33:18;100794.63;;;24.35
31921;BMP280;66485;52.128;4.436;2023-07-31T04:35:51;100791.88;;;24.35
31921;BMP280;66485;52.128;4.436;2023-07-31T04:38:18;100797.03;;;24.33
31921;BMP280;66485;52.128;4.436;2023-07-31T04:40:43;100800.22;;;24.32
31921;BMP280;66485;52.128;4.436;2023-07-31T04:43:09;100793.53;;;24.33
31921;BMP280;66485;52.128;4.436;2023-07-31T04:45:34;100790.03;;;24.32
31921;BMP280;66485;52.128;4.436;2023-07-31T04:48:00;100790.53;;;24.31
31921;BMP280;66485;52.128;4.436;2023-07-31T04:50:25;100787.03;;;24.30
31921;BMP280;66485;52.128;4.436;2023-07-31T04:52:50;100787.03;;;24.30
31921;BMP280;66485;52.128;4.436;2023-07-31T04:55:16;100785.78;;;24.31
31921;BMP280;66485;52.128;4.436;2023-07-31T04:57:41;100771.81;;;24.29
31921;BMP280;66485;52.128;4.436;2023-07-31T05:00:07;100788.06;;;24.33
31921;BMP280;66485;52.128;4.436;2023-07-31T05:02:32;100788.06;;;24.33
31921;BMP280;66485;52.128;4.436;2023-07-31T05:04:58;100774.72;;;24.26
31921;BMP280;66485;52.128;4.436;2023-07-31T05:07:23;100776.97;;;24.27
31921;BMP280;66485;52.128;4.436;2023-07-31T05:09:48;100780.31;;;24.31
31921;BMP280;66485;52.128;4.436;2023-07-31T05:12:14;100773.78;;;24.29
31921;BMP280;66485;52.128;4.436;2023-07-31T05:14:39;100766.34;;;24.29
31921;BMP280;66485;52.128;4.436;2023-07-31T05:17:05;100766.94;;;24.33
31921;BMP280;66485;52.128;4.436;2023-07-31T05:19:30;100765.88;;;24.31
31921;BMP280;66485;52.128;4.436;2023-07-31T05:21:56;100766.63;;;24.31
31921;BMP280;66485;52.128;4.436;2023-07-31T05:24:21;100773.50;;;24.27
31921;BMP280;66485;52.128;4.436;2023-07-31T05:26:46;100773.50;;;24.27
31921;BMP280;66485;52.128;4.436;2023-07-31T05:29:12;100757.38;;;24.29
31921;BMP280;66485;52.128;4.436;2023-07-31T05:31:38;100752.94;;;24.31
31921;BMP280;66485;52.128;4.436;2023-07-31T05:34:03;100742.63;;;24.26
31921;BMP280;66485;52.128;4.436;2023-07-31T05:36:29;100749.16;;;24.29
31921;BMP280;66485;52.128;4.436;2023-07-31T05:38:54;100749.16;;;24.29
31921;BMP280;66485;52.128;4.436;2023-07-31T05:41:19;100735.78;;;24.31
31921;BMP280;66485;52.128;4.436;2023-07-31T05:43:45;100732.44;;;24.27
31921;BMP280;66485;52.128;4.436;2023-07-31T05:46:11;100732.72;;;24.29
31921;BMP280;66485;52.128;4.436;2023-07-31T05:48:37;100737.75;;;24.30
31921;BMP280;66485;52.128;4.436;2023-07-31T05:51:03;100737.75;;;24.30
31921;BMP280;66485;52.128;4.436;2023-07-31T05:53:28;100737.94;;;24.27
31921;BMP280;66485;52.128;4.436;2023-07-31T05:55:53;100736.22;;;24.29
31921;BMP280;66485;52.128;4.436;2023-07-31T05:58:19;100736.22;;;24.29
31921;BMP280;66485;52.128;4.436;2023-07-31T06:00:44;100726.03;;;24.30
31921;BMP280;66485;52.128;4.436;2023-07-31T06:03:10;100730.75;;;24.29
31921;BMP280;66485;52.128;4.436;2023-07-31T06:05:35;100730.75;;;24.29
31921;BMP280;66485;52.128;4.436;2023-07-31T06:08:00;100719.97;;;24.26
31921;BMP280;66485;52.128;4.436;2023-07-31T06:10:26;100719.97;;;24.26
31921;BMP280;66485;52.128;4.436;2023-07-31T06:12:51;100723.47;;;24.26
31921;BMP280;66485;52.128;4.436;2023-07-31T06:15:17;100723.47;;;24.26
31921;BMP280;66485;52.128;4.436;2023-07-31T06:17:44;100705.09;;;24.27
31921;BMP280;66485;52.128;4.436;2023-07-31T06:20:10;100705.09;;;24.27
31921;BMP280;66485;52.128;4.436;2023-07-31T06:22:35;100706.56;;;24.28
31921;BMP280;66485;52.128;4.436;2023-07-31T06:25:01;100697.91;;;24.29
31921;BMP280;66485;52.128;4.436;2023-07-31T06:27:26;100706.88;;;24.30
31921;BMP280;66485;52.128;4.436;2023-07-31T06:29:51;100702.63;;;24.29
31921;BMP280;66485;52.128;4.436;2023-07-31T06:32:16;100702.63;;;24.29
31921;BMP280;66485;52.128;4.436;2023-07-31T06:34:42;100704.31;;;24.26
31921;BMP280;66485;52.128;4.436;2023-07-31T06:37:07;100699.59;;;24.27
31921;BMP280;66485;52.128;4.436;2023-07-31T06:39:33;100702.34;;;24.27
31921;BMP280;66485;52.128;4.436;2023-07-31T06:41:58;100696.69;;;24.30
31921;BMP280;66485;52.128;4.436;2023-07-31T06:44:23;100689.69;;;24.29
31921;BMP280;66485;52.128;4.436;2023-07-31T06:46:49;100684.69;;;24.28
31921;BMP280;66485;52.128;4.436;2023-07-31T06:49:14;100684.69;;;24.28
31921;BMP280;66485;52.128;4.436;2023-07-31T06:51:43;100697.16;;;24.29
31921;BMP280;66485;52.128;4.436;2023-07-31T06:54:09;100689.25;;;24.31
31921;BMP280;66485;52.128;4.436;2023-07-31T06:56:34;100692.13;;;24.27
31921;BMP280;66485;52.128;4.436;2023-07-31T06:58:59;100690.47;;;24.30
31921;BMP280;66485;52.128;4.436;2023-07-31T07:01:25;100684.69;;;24.28
31921;BMP280;66485;52.128;4.436;2023-07-31T07:03:51;100684.69;;;24.28
31921;BMP280;66485;52.128;4.436;2023-07-31T07:06:17;100687.41;;;24.28
31921;BMP280;66485;52.128;4.436;2023-07-31T07:08:43;100686.38;;;24.25
31921;BMP280;66485;52.128;4.436;2023-07-31T07:11:08;100686.38;;;24.25
31921;BMP280;66485;52.128;4.436;2023-07-31T07:13:33;100695.94;;;24.30
31921;BMP280;66485;52.128;4.436;2023-07-31T07:15:59;100695.94;;;24.30
31921;BMP280;66485;52.128;4.436;2023-07-31T07:18:24;100701.09;;;24.28
31921;BMP280;66485;52.128;4.436;2023-07-31T07:20:51;100697.59;;;24.27
31921;BMP280;66485;52.128;4.436;2023-07-31T07:23:17;100684.69;;;24.28
31921;BMP280;66485;52.128;4.436;2023-07-31T07:25:43;100692.13;;;24.27
31921;BMP280;66485;52.128;4.436;2023-07-31T07:28:09;100688.66;;;24.27
31921;BMP280;66485;52.128;4.436;2023-07-31T07:30:34;100688.66;;;24.27
31921;BMP280;66485;52.128;4.436;2023-07-31T07:33:00;100698.69;;;24.30
31921;BMP280;66485;52.128;4.436;2023-07-31T07:35:25;100699.44;;;24.30
31921;BMP280;66485;52.128;4.436;2023-07-31T07:37:50;100697.47;;;24.31
31921;BMP280;66485;52.128;4.436;2023-07-31T07:40:16;100688.00;;;24.32
31921;BMP280;66485;52.128;4.436;2023-07-31T07:42:41;100692.00;;;24.31
31921;BMP280;66485;52.128;4.436;2023-07-31T07:45:07;100693.47;;;24.32
31921;BMP280;66485;52.128;4.436;2023-07-31T07:47:33;100689.97;;;24.31
31921;BMP280;66485;52.128;4.436;2023-07-31T07:49:58;100688.00;;;24.32
31921;BMP280;66485;52.128;4.436;2023-07-31T07:52:23;100694.53;;;24.34
31921;BMP280;66485;52.128;4.436;2023-07-31T07:54:49;100697.75;;;24.33
31921;BMP280;66485;52.128;4.436;2023-07-31T07:57:15;100694.25;;;24.32
31921;BMP280;66485;52.128;4.436;2023-07-31T07:59:40;100690.28;;;24.33
31921;BMP280;66485;52.128;4.436;2023-07-31T08:02:06;100690.28;;;24.33
31921;BMP280;66485;52.128;4.436;2023-07-31T08:04:31;100676.59;;;24.33
31921;BMP280;66485;52.128;4.436;2023-07-31T08:06:57;100677.38;;;24.34
31921;BMP280;66485;52.128;4.436;2023-07-31T08:09:22;100669.16;;;24.34
31921;BMP280;66485;52.128;4.436;2023-07-31T08:11:47;100669.16;;;24.34
31921;BMP280;66485;52.128;4.436;2023-07-31T08:14:13;100667.03;;;24.38
31921;BMP280;66485;52.128;4.436;2023-07-31T08:16:38;100670.22;;;24.36
31921;BMP280;66485;52.128;4.436;2023-07-31T08:19:03;100671.75;;;24.37
31921;BMP280;66485;52.128;4.436;2023-07-31T08:21:29;100668.53;;;24.39
31921;BMP280;66485;52.128;4.436;2023-07-31T08:23:55;100669.47;;;24.36
31921;BMP280;66485;52.128;4.436;2023-07-31T08:26:20;100669.47;;;24.36
31921;BMP280;66485;52.128;4.436;2023-07-31T08:28:46;100675.53;;;24.40
31921;BMP280;66485;52.128;4.436;2023-07-31T08:31:11;100681.94;;;24.37
31921;BMP280;66485;52.128;4.436;2023-07-31T08:33:37;100665.78;;;24.39
31921;BMP280;66485;52.128;4.436;2023-07-31T08:36:03;100659.56;;;24.38
31921;BMP280;66485;52.128;4.436;2023-07-31T08:38:28;100663.03;;;24.39
31921;BMP280;66485;52.128;4.436;2023-07-31T08:40:56;100661.25;;;24.36
31921;BMP280;66485;52.128;4.436;2023-07-31T08:43:25;100657.28;;;24.37
31921;BMP280;66485;52.128;4.436;2023-07-31T08:45:50;100654.56;;;24.37
31921;BMP280;66485;52.128;4.436;2023-07-31T08:48:17;100662.78;;;24.37
31921;BMP280;66485;52.128;4.436;2023-07-31T08:50:42;100662.78;;;24.37
31921;BMP280;66485;52.128;4.436;2023-07-31T08:53:08;100656.19;;;24.34
31921;BMP280;66485;52.128;4.436;2023-07-31T08:55:33;100667.03;;;24.38
31921;BMP280;66485;52.128;4.436;2023-07-31T08:58:00;100656.09;;;24.38
31921;BMP280;66485;52.128;4.436;2023-07-31T09:00:29;100656.09;;;24.38
31921;BMP280;66485;52.128;4.436;2023-07-31T09:03:02;100655.78;;;24.36
31921;BMP280;66485;52.128;4.436;2023-07-31T09:05:30;100655.78;;;24.36
31921;BMP280;66485;52.128;4.436;2023-07-31T09:07:56;100660.78;;;24.37
31921;BMP280;66485;52.128;4.436;2023-07-31T09:10:22;100660.78;;;24.37
31921;BMP280;66485;52.128;4.436;2023-07-31T09:12:49;100659.38;;;24.42
31921;BMP280;66485;52.128;4.436;2023-07-31T09:15:16;100659.38;;;24.42
31921;BMP280;66485;52.128;4.436;2023-07-31T09:17:41;100660.31;;;24.39
31921;BMP280;66485;52.128;4.436;2023-07-31T09:20:20;100657.56;;;24.39
31921;BMP280;66485;52.128;4.436;2023-07-31T09:22:47;100653.63;;;24.40
31921;BMP280;66485;52.128;4.436;2023-07-31T09:25:20;100662.59;;;24.40
31921;BMP280;66485;52.128;4.436;2023-07-31T09:28:00;100650.13;;;24.39
31921;BMP280;66485;52.128;4.436;2023-07-31T09:30:26;100667.13;;;24.43
31921;BMP280;66485;52.128;4.436;2023-07-31T09:33:03;100667.13;;;24.43
31921;BMP280;66485;52.128;4.436;2023-07-31T09:35:32;100661.50;;;24.47
31921;BMP280;66485;52.128;4.436;2023-07-31T09:38:00;100657.41;;;24.42
31921;BMP280;66485;52.128;4.436;2023-07-31T09:40:30;100657.41;;;24.42
31921;BMP280;66485;52.128;4.436;2023-07-31T09:42:58;100654.84;;;24.39
31921;BMP280;66485;52.128;4.436;2023-07-31T09:45:24;100651.91;;;24.42
31921;BMP280;66485;52.128;4.436;2023-07-31T09:47:50;100651.91;;;24.42
31921;BMP280;66485;52.128;4.436;2023-07-31T09:50:15;100652.06;;;24.48
31921;BMP280;66485;52.128;4.436;2023-07-31T09:52:44;100652.06;;;24.48
31921;BMP280;66485;52.128;4.436;2023-07-31T09:55:10;100646.59;;;24.48
31921;BMP280;66485;52.128;4.436;2023-07-31T09:57:40;100646.59;;;24.48
31921;BMP280;66485;52.128;4.436;2023-07-31T10:00:10;100644.47;;;24.43
31921;BMP280;66485;52.128;4.436;2023-07-31T10:02:36;100645.22;;;24.43
31921;BMP280;66485;52.128;4.436;2023-07-31T10:05:03;100645.22;;;24.43
31921;BMP280;66485;52.128;4.436;2023-07-31T10:07:30;100650.66;;;24.52
31921;BMP280;66485;52.128;4.436;2023-07-31T10:09:57;100650.66;;;24.52
31921;BMP280;66485;52.128;4.436;2023-07-31T10:12:26;100637.13;;;24.58
31921;BMP280;66485;52.128;4.436;2023-07-31T10:14:55;100643.34;;;24.58
31921;BMP280;66485;52.128;4.436;2023-07-31T10:17:22;100650.91;;;24.63
31921;BMP280;66485;52.128;4.436;2023-07-31T10:19:49;100664.28;;;24.71
31921;BMP280;66485;52.128;4.436;2023-07-31T10:22:15;100657.28;;;24.70
31921;BMP280;66485;52.128;4.436;2023-07-31T10:24:45;100643.31;;;24.68
31921;BMP280;66485;52.128;4.436;2023-07-31T10:27:11;100655.59;;;24.72
31921;BMP280;66485;52.128;4.436;2023-07-31T10:29:40;100655.59;;;24.72
31921;BMP280;66485;52.128;4.436;2023-07-31T10:32:07;100649.53;;;24.68
31921;BMP280;66485;52.128;4.436;2023-07-31T10:34:35;100655.28;;;24.70
31921;BMP280;66485;52.128;4.436;2023-07-31T10:37:21;100651.59;;;24.73
31921;BMP280;66485;52.128;4.436;2023-07-31T10:40:02;100653.47;;;24.67
31921;BMP280;66485;52.128;4.436;2023-07-31T10:42:44;100657.00;;;24.68
31921;BMP280;66485;52.128;4.436;2023-07-31T10:45:10;100647.03;;;24.79
31921;BMP280;66485;52.128;4.436;2023-07-31T10:47:42;100650.81;;;24.82
31921;BMP280;66485;52.128;4.436;2023-07-31T10:50:26;100650.81;;;24.82
31921;BMP280;66485;52.128;4.436;2023-07-31T10:52:54;100646.44;;;24.75
31921;BMP280;66485;52.128;4.436;2023-07-31T10:55:28;100658.84;;;24.85
31921;BMP280;66485;52.128;4.436;2023-07-31T10:57:55;100658.84;;;24.85
31921;BMP280;66485;52.128;4.436;2023-07-31T11:00:29;100647.78;;;24.80
31921;BMP280;66485;52.128;4.436;2023-07-31T11:03:05;100643.81;;;24.81
31921;BMP280;66485;52.128;4.436;2023-07-31T11:05:52;100643.81;;;24.81
31921;BMP280;66485;52.128;4.436;2023-07-31T11:08:22;100639.19;;;24.87
31921;BMP280;66485;52.128;4.436;2023-07-31T11:13:42;100623.31;;;24.76
31921;BMP280;66485;52.128;4.436;2023-07-31T11:16:08;100634.38;;;24.82
31921;BMP280;66485;52.128;4.436;2023-07-31T11:18:34;100635.56;;;24.90
31921;BMP280;66485;52.128;4.436;2023-07-31T11:21:00;100627.44;;;24.95
31921;BMP280;66485;52.128;4.436;2023-07-31T11:23:25;100627.44;;;24.95
31921;BMP280;66485;52.128;4.436;2023-07-31T11:25:51;100611.44;;;24.94
31921;BMP280;66485;52.128;4.436;2023-07-31T11:28:17;100612.50;;;24.96
31921;BMP280;66485;52.128;4.436;2023-07-31T11:30:44;100604.75;;;24.95
31921;BMP280;66485;52.128;4.436;2023-07-31T11:33:12;100616.00;;;24.97
31921;BMP280;66485;52.128;4.436;2023-07-31T11:35:48;100612.97;;;24.95
31921;BMP280;66485;52.128;4.436;2023-07-31T11:40:52;100632.91;;;24.95
31921;BMP280;66485;52.128;4.436;2023-07-31T11:43:19;100617.41;;;24.92
31921;BMP280;66485;52.128;4.436;2023-07-31T11:45:46;100629.91;;;24.93
31921;BMP280;66485;52.128;4.436;2023-07-31T11:48:29;100633.25;;;24.88
31921;BMP280;66485;52.128;4.436;2023-07-31T11:51:00;100633.25;;;24.88
31921;BMP280;66485;52.128;4.436;2023-07-31T11:53:32;100647.63;;;24.83
31921;BMP280;66485;52.128;4.436;2023-07-31T11:55:59;100647.63;;;24.83
31921;BMP280;66485;52.128;4.436;2023-07-31T11:58:26;100641.84;;;24.81
31921;BMP280;66485;52.128;4.436;2023-07-31T12:00:52;100628.22;;;24.87
31921;BMP280;66485;52.128;4.436;2023-07-31T12:03:18;100609.97;;;24.93
31921;BMP280;66485;52.128;4.436;2023-07-31T12:05:44;100609.97;;;24.93
31921;BMP280;66485;52.128;4.436;2023-07-31T12:08:11;100625.91;;;24.94
31921;BMP280;66485;52.128;4.436;2023-07-31T12:10:40;100625.91;;;24.94
31921;BMP280;66485;52.128;4.436;2023-07-31T12:13:20;100607.75;;;24.82
31921;BMP280;66485;52.128;4.436;2023-07-31T12:15:46;100614.38;;;24.90
31921;BMP280;66485;52.128;4.436;2023-07-31T12:18:19;100614.38;;;24.90
31921;BMP280;66485;52.128;4.436;2023-07-31T12:20:49;100594.66;;;24.77
31921;BMP280;66485;52.128;4.436;2023-07-31T12:23:19;100595.84;;;24.85
31921;BMP280;66485;52.128;4.436;2023-07-31T12:26:07;100601.13;;;24.89
31921;BMP280;66485;52.128;4.436;2023-07-31T12:28:48;100612.88;;;24.89
31921;BMP280;66485;52.128;4.436;2023-07-31T12:31:15;100612.88;;;24.89
31921;BMP280;66485;52.128;4.436;2023-07-31T12:33:42;100583.78;;;24.92
31921;BMP280;66485;52.128;4.436;2023-07-31T12:36:13;100586.28;;;25.19
31921;BMP280;66485;52.128;4.436;2023-07-31T12:38:39;100577.97;;;25.43
31921;BMP280;66485;52.128;4.436;2023-07-31T12:41:04;100558.78;;;25.28
31921;BMP280;66485;52.128;4.436;2023-07-31T12:43:39;100576.00;;;25.43
31921;BMP280;66485;52.128;4.436;2023-07-31T12:46:05;100576.00;;;25.43
31921;BMP280;66485;52.128;4.436;2023-07-31T12:48:34;100585.25;;;25.46
31921;BMP280;66485;52.128;4.436;2023-07-31T12:50:59;100585.00;;;25.44
31921;BMP280;66485;52.128;4.436;2023-07-31T12:53:25;100574.41;;;25.37
31921;BMP280;66485;52.128;4.436;2023-07-31T12:55:50;100578.25;;;25.45
31921;BMP280;66485;52.128;4.436;2023-07-31T12:58:16;100578.25;;;25.45
31921;BMP280;66485;52.128;4.436;2023-07-31T13:00:41;100572.22;;;25.41
31921;BMP280;66485;52.128;4.436;2023-07-31T13:03:06;100563.63;;;25.33
31921;BMP280;66485;52.128;4.436;2023-07-31T13:05:32;100568.06;;;25.31
31921;BMP280;66485;52.128;4.436;2023-07-31T13:07:57;100557.38;;;25.33
31921;BMP280;66485;52.128;4.436;2023-07-31T13:10:23;100557.38;;;25.33
31921;BMP280;66485;52.128;4.436;2023-07-31T13:12:49;100564.75;;;25.27
31921;BMP280;66485;52.128;4.436;2023-07-31T13:15:14;100546.13;;;25.31
31921;BMP280;66485;52.128;4.436;2023-07-31T13:17:40;100546.78;;;25.26
31921;BMP280;66485;52.128;4.436;2023-07-31T13:20:06;100545.34;;;25.30
31921;BMP280;66485;52.128;4.436;2023-07-31T13:22:31;100562.97;;;25.24
31921;BMP280;66485;52.128;4.436;2023-07-31T13:24:57;100537.53;;;25.23
31921;BMP280;66485;52.128;4.436;2023-07-31T13:27:22;100551.03;;;25.27
31921;BMP280;66485;52.128;4.436;2023-07-31T13:29:48;100544.59;;;25.30
31921;BMP280;66485;52.128;4.436;2023-07-31T13:32:15;100539.13;;;25.30
31921;BMP280;66485;52.128;4.436;2023-07-31T13:34:40;100539.13;;;25.30
31921;BMP280;66485;52.128;4.436;2023-07-31T13:37:05;100537.91;;;25.31
31921;BMP280;66485;52.128;4.436;2023-07-31T13:39:31;100537.91;;;25.31
31921;BMP280;66485;52.128;4.436;2023-07-31T13:41:57;100544.88;;;25.32
31921;BMP280;66485;52.128;4.436;2023-07-31T13:44:23;100533.38;;;25.28
31921;BMP280;66485;52.128;4.436;2023-07-31T13:46:48;100533.38;;;25.28
31921;BMP280;66485;52.128;4.436;2023-07-31T13:49:13;100554.75;;;25.24
31921;BMP280;66485;52.128;4.436;2023-07-31T13:51:39;100537.03;;;25.25
31921;BMP280;66485;52.128;4.436;2023-07-31T13:54:04;100542.41;;;25.19
31921;BMP280;66485;52.128;4.436;2023-07-31T13:56:31;100546.03;;;25.25
31921;BMP280;66485;52.128;4.436;2023-07-31T13:58:56;100532.88;;;25.29
31921;BMP280;66485;52.128;4.436;2023-07-31T14:01:22;100516.53;;;25.20
31921;BMP280;66485;52.128;4.436;2023-07-31T14:03:47;100516.53;;;25.20
31921;BMP280;66485;52.128;4.436;2023-07-31T14:06:13;100524.59;;;25.24
31921;BMP280;66485;52.128;4.436;2023-07-31T14:08:38;100524.59;;;25.24